sensor_id;sensor_type;location;lat;lon;timestamp;temperature;humidity
21487;DHT22;10905;50.822;4.336;2023-09-18T00:00:47;22.50;99.90
21487;DHT22;10905;50.822;4.336;2023-09-18T00:03:20;22.50;99.90
21487;DHT22;10905;50.822;4.336;2023-09-18T00:05:47;22.60;99.90
21487;DHT22;10905;50.822;4.336;2023-09-18T00:08:16;22.70;99.90
21487;DHT22;10905;50.822;4.336;2023-09-18T00:10:45;22.70;99.90
21487;DHT22;10905;50.822;4.336;2023-09-18T00:13:12;22.70;99.90
21487;DHT22;10905;50.822;4.336;2023-09-18T00:15:37;22.80;99.90
21487;DHT22;10905;50.822;4.336;2023-09-18T00:18:04;22.70;99.90
21487;DHT22;10905;50.822;4.336;2023-09-18T00:20:30;22.80;99.90
21487;DHT22;10905;50.822;4.336;2023-09-18T00:22:56;22.80;99.90
21487;DHT22;10905;50.822;4.336;2023-09-18T00:25:24;22.70;99.90
21487;DHT22;10905;50.822;4.336;2023-09-18T00:27:50;22.60;99.90
21487;DHT22;10905;50.822;4.336;2023-09-18T00:30:17;22.50;99.90
21487;DHT22;10905;50.822;4.336;2023-09-18T00:32:43;22.40;99.90
21487;DHT22;10905;50.822;4.336;2023-09-18T00:35:08;22.30;99.90
21487;DHT22;10905;50.822;4.336;2023-09-18T00:37:34;22.30;99.90
21487;DHT22;10905;50.822;4.336;2023-09-18T00:40:02;22.40;99.90
21487;DHT22;10905;50.822;4.336;2023-09-18T00:42:27;22.40;99.90
21487;DHT22;10905;50.822;4.336;2023-09-18T00:44:53;22.40;99.90
21487;DHT22;10905;50.822;4.336;2023-09-18T00:47:19;22.20;99.90
21487;DHT22;10905;50.822;4.336;2023-09-18T00:49:48;22.00;99.90
21487;DHT22;10905;50.822;4.336;2023-09-18T00:52:15;22.00;99.90
21487;DHT22;10905;50.822;4.336;2023-09-18T00:54:42;22.00;99.90
21487;DHT22;10905;50.822;4.336;2023-09-18T00:57:09;22.00;99.90
21487;DHT22;10905;50.822;4.336;2023-09-18T00:59:38;21.80;99.90
21487;DHT22;10905;50.822;4.336;2023-09-18T01:02:04;21.80;99.90
21487;DHT22;10905;50.822;4.336;2023-09-18T01:04:30;21.70;99.90
21487;DHT22;10905;50.822;4.336;2023-09-18T01:07:01;21.60;99.90
21487;DHT22;10905;50.822;4.336;2023-09-18T01:09:32;21.50;99.90
21487;DHT22;10905;50.822;4.336;2023-09-18T01:17:22;21.40;99.90
21487;DHT22;10905;50.822;4.336;2023-09-18T01:19:48;21.40;99.90
21487;DHT22;10905;50.822;4.336;2023-09-18T01:22:16;21.40;99.90
21487;DHT22;10905;50.822;4.336;2023-09-18T01:24:42;21.40;99.90
21487;DHT22;10905;50.822;4.336;2023-09-18T01:27:10;21.30;99.90
21487;DHT22;10905;50.822;4.336;2023-09-18T01:29:36;21.20;99.90
21487;DHT22;10905;50.822;4.336;2023-09-18T01:32:02;21.20;99.90
21487;DHT22;10905;50.822;4.336;2023-09-18T01:34:40;21.20;99.90
21487;DHT22;10905;50.822;4.336;2023-09-18T01:37:09;21.20;99.90
21487;DHT22;10905;50.822;4.336;2023-09-18T01:39:35;21.20;99.90
21487;DHT22;10905;50.822;4.336;2023-09-18T01:42:03;21.20;99.90
21487;DHT22;10905;50.822;4.336;2023-09-18T01:44:31;21.20;99.90
21487;DHT22;10905;50.822;4.336;2023-09-18T01:47:02;21.20;99.90
21487;DHT22;10905;50.822;4.336;2023-09-18T01:49:34;21.20;99.90
21487;DHT22;10905;50.822;4.336;2023-09-18T01:52:00;21.20;99.90
21487;DHT22;10905;50.822;4.336;2023-09-18T01:54:26;21.20;99.90
21487;DHT22;10905;50.822;4.336;2023-09-18T01:56:53;21.30;99.90
21487;DHT22;10905;50.822;4.336;2023-09-18T01:59:19;21.30;99.90
21487;DHT22;10905;50.822;4.336;2023-09-18T02:01:45;21.30;99.90
21487;DHT22;10905;50.822;4.336;2023-09-18T02:04:11;21.30;99.90
21487;DHT22;10905;50.822;4.336;2023-09-18T02:06:36;21.20;99.90
21487;DHT22;10905;50.822;4.336;2023-09-18T02:09:02;21.20;99.90
21487;DHT22;10905;50.822;4.336;2023-09-18T02:11:30;21.10;99.90
21487;DHT22;10905;50.822;4.336;2023-09-18T02:13:56;21.20;99.90
21487;DHT22;10905;50.822;4.336;2023-09-18T02:16:22;21.10;99.90
21487;DHT22;10905;50.822;4.336;2023-09-18T02:18:50;21.20;99.90
21487;DHT22;10905;50.822;4.336;2023-09-18T02:21:22;21.20;99.90
21487;DHT22;10905;50.822;4.336;2023-09-18T02:23:50;21.30;99.90
21487;DHT22;10905;50.822;4.336;2023-09-18T02:26:17;21.20;99.90
21487;DHT22;10905;50.822;4.336;2023-09-18T02:28:43;21.30;99.90
21487;DHT22;10905;50.822;4.336;2023-09-18T02:31:08;21.30;99.90
21487;DHT22;10905;50.822;4.336;2023-09-18T02:33:34;21.20;99.90
21487;DHT22;10905;50.822;4.336;2023-09-18T02:36:00;21.20;99.90
21487;DHT22;10905;50.822;4.336;2023-09-18T02:38:27;21.20;99.90
21487;DHT22;10905;50.822;4.336;2023-09-18T02:40:53;21.20;99.90
21487;DHT22;10905;50.822;4.336;2023-09-18T02:43:20;21.20;99.90
21487;DHT22;10905;50.822;4.336;2023-09-18T02:45:46;21.20;99.90
21487;DHT22;10905;50.822;4.336;2023-09-18T02:48:12;21.20;99.90
21487;DHT22;10905;50.822;4.336;2023-09-18T02:50:38;21.10;99.90
21487;DHT22;10905;50.822;4.336;2023-09-18T02:53:06;21.10;99.90
21487;DHT22;10905;50.822;4.336;2023-09-18T02:55:32;21.10;99.90
21487;DHT22;10905;50.822;4.336;2023-09-18T02:57:57;21.10;99.90
21487;DHT22;10905;50.822;4.336;2023-09-18T03:00:24;21.10;99.90
21487;DHT22;10905;50.822;4.336;2023-09-18T03:02:50;21.20;99.90
21487;DHT22;10905;50.822;4.336;2023-09-18T03:05:15;21.20;99.90
21487;DHT22;10905;50.822;4.336;2023-09-18T03:07:41;21.10;99.90
21487;DHT22;10905;50.822;4.336;2023-09-18T03:10:07;21.10;99.90
21487;DHT22;10905;50.822;4.336;2023-09-18T03:12:33;21.10;99.90
21487;DHT22;10905;50.822;4.336;2023-09-18T03:14:59;21.10;99.90
21487;DHT22;10905;50.822;4.336;2023-09-18T03:17:25;21.10;99.90
21487;DHT22;10905;50.822;4.336;2023-09-18T03:19:50;21.10;99.90
21487;DHT22;10905;50.822;4.336;2023-09-18T03:22:16;21.10;99.90
21487;DHT22;10905;50.822;4.336;2023-09-18T03:24:41;21.10;99.90
21487;DHT22;10905;50.822;4.336;2023-09-18T03:27:07;21.20;99.90
21487;DHT22;10905;50.822;4.336;2023-09-18T03:29:33;21.20;99.90
21487;DHT22;10905;50.822;4.336;2023-09-18T03:31:58;21.20;99.90
21487;DHT22;10905;50.822;4.336;2023-09-18T03:34:25;21.20;99.90
21487;DHT22;10905;50.822;4.336;2023-09-18T03:36:52;21.20;99.90
21487;DHT22;10905;50.822;4.336;2023-09-18T03:39:18;21.20;99.90
21487;DHT22;10905;50.822;4.336;2023-09-18T03:41:44;21.10;99.90
21487;DHT22;10905;50.822;4.336;2023-09-18T03:44:10;21.10;99.90
21487;DHT22;10905;50.822;4.336;2023-09-18T03:46:36;21.00;99.90
21487;DHT22;10905;50.822;4.336;2023-09-18T03:49:02;21.00;99.90
21487;DHT22;10905;50.822;4.336;2023-09-18T03:51:28;21.00;99.90
21487;DHT22;10905;50.822;4.336;2023-09-18T03:53:55;21.00;99.90
21487;DHT22;10905;50.822;4.336;2023-09-18T03:56:21;20.90;99.90
21487;DHT22;10905;50.822;4.336;2023-09-18T03:58:47;20.90;99.90
21487;DHT22;10905;50.822;4.336;2023-09-18T04:01:15;20.90;99.90
21487;DHT22;10905;50.822;4.336;2023-09-18T04:03:41;20.80;99.90
21487;DHT22;10905;50.822;4.336;2023-09-18T04:06:07;20.80;99.90
21487;DHT22;10905;50.822;4.336;2023-09-18T04:08:32;20.80;99.90
21487;DHT22;10905;50.822;4.336;2023-09-18T04:10:58;20.80;99.90
21487;DHT22;10905;50.822;4.336;2023-09-18T04:13:24;20.90;99.90
21487;DHT22;10905;50.822;4.336;2023-09-18T04:15:50;20.80;99.90
21487;DHT22;10905;50.822;4.336;2023-09-18T04:18:25;20.80;99.90
21487;DHT22;10905;50.822;4.336;2023-09-18T04:20:50;20.90;99.90
21487;DHT22;10905;50.822;4.336;2023-09-18T04:23:27;20.80;99.90
21487;DHT22;10905;50.822;4.336;2023-09-18T04:25:54;20.80;99.90
21487;DHT22;10905;50.822;4.336;2023-09-18T04:28:21;20.80;99.90
21487;DHT22;10905;50.822;4.336;2023-09-18T04:30:47;20.80;99.90
21487;DHT22;10905;50.822;4.336;2023-09-18T04:33:14;20.80;99.90
21487;DHT22;10905;50.822;4.336;2023-09-18T04:35:39;20.70;99.90
21487;DHT22;10905;50.822;4.336;2023-09-18T04:38:08;20.70;99.90
21487;DHT22;10905;50.822;4.336;2023-09-18T04:40:36;20.60;99.90
21487;DHT22;10905;50.822;4.336;2023-09-18T04:43:01;20.50;99.90
21487;DHT22;10905;50.822;4.336;2023-09-18T04:45:30;20.50;99.90
21487;DHT22;10905;50.822;4.336;2023-09-18T04:47:56;20.50;99.90
21487;DHT22;10905;50.822;4.336;2023-09-18T04:50:22;20.40;99.90
21487;DHT22;10905;50.822;4.336;2023-09-18T04:52:47;20.40;99.90
21487;DHT22;10905;50.822;4.336;2023-09-18T04:55:13;20.30;99.90
21487;DHT22;10905;50.822;4.336;2023-09-18T04:57:39;20.30;99.90
21487;DHT22;10905;50.822;4.336;2023-09-18T05:00:06;20.30;99.90
21487;DHT22;10905;50.822;4.336;2023-09-18T05:02:38;20.30;99.90
21487;DHT22;10905;50.822;4.336;2023-09-18T05:05:04;20.40;99.90
21487;DHT22;10905;50.822;4.336;2023-09-18T05:07:30;20.50;99.90
21487;DHT22;10905;50.822;4.336;2023-09-18T05:09:56;20.50;99.90
21487;DHT22;10905;50.822;4.336;2023-09-18T05:12:22;20.50;99.90
21487;DHT22;10905;50.822;4.336;2023-09-18T05:14:48;20.40;99.90
21487;DHT22;10905;50.822;4.336;2023-09-18T05:17:16;20.30;99.90
21487;DHT22;10905;50.822;4.336;2023-09-18T05:19:45;20.30;99.90
21487;DHT22;10905;50.822;4.336;2023-09-18T05:22:11;20.30;99.90
21487;DHT22;10905;50.822;4.336;2023-09-18T05:24:38;20.30;99.90
21487;DHT22;10905;50.822;4.336;2023-09-18T05:27:04;20.30;99.90
21487;DHT22;10905;50.822;4.336;2023-09-18T05:29:31;20.30;99.90
21487;DHT22;10905;50.822;4.336;2023-09-18T05:31:57;20.20;99.90
21487;DHT22;10905;50.822;4.336;2023-09-18T05:34:23;20.20;99.90
21487;DHT22;10905;50.822;4.336;2023-09-18T05:36:49;20.20;99.90
21487;DHT22;10905;50.822;4.336;2023-09-18T05:39:15;20.10;99.90
21487;DHT22;10905;50.822;4.336;2023-09-18T05:41:42;20.10;99.90
21487;DHT22;10905;50.822;4.336;2023-09-18T05:44:07;20.10;99.90
21487;DHT22;10905;50.822;4.336;2023-09-18T05:46:36;20.10;99.90
21487;DHT22;10905;50.822;4.336;2023-09-18T05:49:02;20.10;99.90
21487;DHT22;10905;50.822;4.336;2023-09-18T05:51:29;20.10;99.90
21487;DHT22;10905;50.822;4.336;2023-09-18T05:53:54;20.10;99.90
21487;DHT22;10905;50.822;4.336;2023-09-18T05:56:20;20.10;99.90
21487;DHT22;10905;50.822;4.336;2023-09-18T05:58:46;20.00;99.90
21487;DHT22;10905;50.822;4.336;2023-09-18T06:01:12;20.00;99.90
21487;DHT22;10905;50.822;4.336;2023-09-18T06:03:37;19.90;99.90
21487;DHT22;10905;50.822;4.336;2023-09-18T06:06:04;19.80;99.90
21487;DHT22;10905;50.822;4.336;2023-09-18T06:08:30;19.80;99.90
21487;DHT22;10905;50.822;4.336;2023-09-18T06:10:56;19.80;99.90
21487;DHT22;10905;50.822;4.336;2023-09-18T06:13:24;19.90;99.90
21487;DHT22;10905;50.822;4.336;2023-09-18T06:15:51;19.90;99.90
21487;DHT22;10905;50.822;4.336;2023-09-18T06:18:20;19.90;99.90
21487;DHT22;10905;50.822;4.336;2023-09-18T06:20:49;19.90;99.90
21487;DHT22;10905;50.822;4.336;2023-09-18T06:23:15;19.90;99.90
21487;DHT22;10905;50.822;4.336;2023-09-18T06:25:41;19.90;99.90
21487;DHT22;10905;50.822;4.336;2023-09-18T06:28:07;19.90;99.90
21487;DHT22;10905;50.822;4.336;2023-09-18T06:30:32;19.90;99.90
21487;DHT22;10905;50.822;4.336;2023-09-18T06:32:59;19.90;99.90
21487;DHT22;10905;50.822;4.336;2023-09-18T06:35:25;19.90;99.90
21487;DHT22;10905;50.822;4.336;2023-09-18T06:37:51;19.80;99.90
21487;DHT22;10905;50.822;4.336;2023-09-18T06:40:17;19.90;99.90
21487;DHT22;10905;50.822;4.336;2023-09-18T06:42:42;20.00;99.90
21487;DHT22;10905;50.822;4.336;2023-09-18T06:45:08;20.00;99.90
21487;DHT22;10905;50.822;4.336;2023-09-18T06:47:34;20.00;99.90
21487;DHT22;10905;50.822;4.336;2023-09-18T06:50:00;20.10;99.90
21487;DHT22;10905;50.822;4.336;2023-09-18T06:52:27;20.10;99.90
21487;DHT22;10905;50.822;4.336;2023-09-18T06:54:53;20.00;99.90
21487;DHT22;10905;50.822;4.336;2023-09-18T06:57:19;20.00;99.90
21487;DHT22;10905;50.822;4.336;2023-09-18T06:59:46;20.00;99.90
21487;DHT22;10905;50.822;4.336;2023-09-18T07:02:12;20.00;99.90
21487;DHT22;10905;50.822;4.336;2023-09-18T07:04:40;19.90;99.90
21487;DHT22;10905;50.822;4.336;2023-09-18T07:07:13;20.00;99.90
21487;DHT22;10905;50.822;4.336;2023-09-18T07:09:40;20.10;99.90
21487;DHT22;10905;50.822;4.336;2023-09-18T07:12:07;20.10;99.90
21487;DHT22;10905;50.822;4.336;2023-09-18T07:14:33;20.10;99.90
21487;DHT22;10905;50.822;4.336;2023-09-18T07:16:59;20.20;99.90
21487;DHT22;10905;50.822;4.336;2023-09-18T07:19:26;20.20;99.90
21487;DHT22;10905;50.822;4.336;2023-09-18T07:21:52;20.20;99.90
21487;DHT22;10905;50.822;4.336;2023-09-18T07:24:17;20.20;99.90
21487;DHT22;10905;50.822;4.336;2023-09-18T07:26:47;20.10;99.90
21487;DHT22;10905;50.822;4.336;2023-09-18T07:29:16;20.20;99.90
21487;DHT22;10905;50.822;4.336;2023-09-18T07:31:43;20.30;99.90
21487;DHT22;10905;50.822;4.336;2023-09-18T07:34:09;20.20;99.90
21487;DHT22;10905;50.822;4.336;2023-09-18T07:36:35;20.30;99.90
21487;DHT22;10905;50.822;4.336;2023-09-18T07:39:00;20.30;99.90
21487;DHT22;10905;50.822;4.336;2023-09-18T07:41:26;20.20;99.90
21487;DHT22;10905;50.822;4.336;2023-09-18T07:43:52;20.30;99.90
21487;DHT22;10905;50.822;4.336;2023-09-18T07:46:18;20.30;99.90
21487;DHT22;10905;50.822;4.336;2023-09-18T07:48:43;20.30;99.90
21487;DHT22;10905;50.822;4.336;2023-09-18T07:51:12;20.40;99.90
21487;DHT22;10905;50.822;4.336;2023-09-18T07:53:39;20.40;99.90
21487;DHT22;10905;50.822;4.336;2023-09-18T07:56:05;20.50;99.90
21487;DHT22;10905;50.822;4.336;2023-09-18T07:58:31;20.60;99.90
21487;DHT22;10905;50.822;4.336;2023-09-18T08:00:58;20.50;99.90
21487;DHT22;10905;50.822;4.336;2023-09-18T08:03:25;20.70;99.90
21487;DHT22;10905;50.822;4.336;2023-09-18T08:05:52;20.80;99.90
21487;DHT22;10905;50.822;4.336;2023-09-18T08:08:19;21.00;99.90
21487;DHT22;10905;50.822;4.336;2023-09-18T08:10:46;21.00;99.90
21487;DHT22;10905;50.822;4.336;2023-09-18T08:13:12;21.10;99.90
21487;DHT22;10905;50.822;4.336;2023-09-18T08:15:38;21.20;99.90
21487;DHT22;10905;50.822;4.336;2023-09-18T08:18:04;21.10;99.90
21487;DHT22;10905;50.822;4.336;2023-09-18T08:20:30;21.10;99.90
21487;DHT22;10905;50.822;4.336;2023-09-18T08:22:55;21.20;99.90
21487;DHT22;10905;50.822;4.336;2023-09-18T08:25:21;21.30;99.90
21487;DHT22;10905;50.822;4.336;2023-09-18T08:27:47;21.40;99.90
21487;DHT22;10905;50.822;4.336;2023-09-18T08:30:14;21.40;99.90
21487;DHT22;10905;50.822;4.336;2023-09-18T08:32:42;21.30;99.90
21487;DHT22;10905;50.822;4.336;2023-09-18T08:35:08;21.20;99.90
21487;DHT22;10905;50.822;4.336;2023-09-18T08:37:34;21.20;99.90
21487;DHT22;10905;50.822;4.336;2023-09-18T08:39:59;21.20;99.90
21487;DHT22;10905;50.822;4.336;2023-09-18T08:42:38;21.30;99.90
21487;DHT22;10905;50.822;4.336;2023-09-18T08:45:08;21.30;99.90
21487;DHT22;10905;50.822;4.336;2023-09-18T08:47:35;21.30;99.90
21487;DHT22;10905;50.822;4.336;2023-09-18T08:50:01;21.40;99.90
21487;DHT22;10905;50.822;4.336;2023-09-18T08:52:27;21.30;99.90
21487;DHT22;10905;50.822;4.336;2023-09-18T08:54:54;21.40;99.90
21487;DHT22;10905;50.822;4.336;2023-09-18T08:57:21;21.50;99.90
21487;DHT22;10905;50.822;4.336;2023-09-18T08:59:48;21.50;99.90
21487;DHT22;10905;50.822;4.336;2023-09-18T09:02:15;21.50;99.90
21487;DHT22;10905;50.822;4.336;2023-09-18T09:04:40;21.40;99.90
21487;DHT22;10905;50.822;4.336;2023-09-18T09:07:07;21.30;99.90
21487;DHT22;10905;50.822;4.336;2023-09-18T09:09:33;21.30;99.90
21487;DHT22;10905;50.822;4.336;2023-09-18T09:11:59;21.30;99.90
21487;DHT22;10905;50.822;4.336;2023-09-18T09:14:24;21.40;99.90
21487;DHT22;10905;50.822;4.336;2023-09-18T09:16:55;21.40;99.90
21487;DHT22;10905;50.822;4.336;2023-09-18T09:19:29;21.30;99.90
21487;DHT22;10905;50.822;4.336;2023-09-18T09:22:01;21.30;99.90
21487;DHT22;10905;50.822;4.336;2023-09-18T09:24:40;21.20;99.90
21487;DHT22;10905;50.822;4.336;2023-09-18T09:27:07;21.20;99.90
21487;DHT22;10905;50.822;4.336;2023-09-18T09:29:33;21.20;99.90
21487;DHT22;10905;50.822;4.336;2023-09-18T09:34:38;21.30;99.90
21487;DHT22;10905;50.822;4.336;2023-09-18T09:37:03;21.30;99.90
21487;DHT22;10905;50.822;4.336;2023-09-18T09:39:29;21.40;99.90
21487;DHT22;10905;50.822;4.336;2023-09-18T09:42:02;21.40;99.90
21487;DHT22;10905;50.822;4.336;2023-09-18T09:44:32;21.40;99.90
21487;DHT22;10905;50.822;4.336;2023-09-18T09:46:59;21.40;99.90
21487;DHT22;10905;50.822;4.336;2023-09-18T09:49:25;21.40;99.90
21487;DHT22;10905;50.822;4.336;2023-09-18T09:51:53;21.40;99.90
21487;DHT22;10905;50.822;4.336;2023-09-18T09:54:39;21.30;99.90
21487;DHT22;10905;50.822;4.336;2023-09-18T09:57:06;21.20;99.90
21487;DHT22;10905;50.822;4.336;2023-09-18T09:59:32;21.20;99.90
21487;DHT22;10905;50.822;4.336;2023-09-18T10:02:01;21.30;99.90
21487;DHT22;10905;50.822;4.336;2023-09-18T10:04:28;21.30;99.90
21487;DHT22;10905;50.822;4.336;2023-09-18T10:07:08;21.30;99.90
21487;DHT22;10905;50.822;4.336;2023-09-18T10:09:39;21.30;99.90
21487;DHT22;10905;50.822;4.336;2023-09-18T10:12:11;21.20;99.90
21487;DHT22;10905;50.822;4.336;2023-09-18T10:14:37;21.20;99.90
21487;DHT22;10905;50.822;4.336;2023-09-18T10:17:15;21.20;99.90
21487;DHT22;10905;50.822;4.336;2023-09-18T10:22:30;21.30;99.90
21487;DHT22;10905;50.822;4.336;2023-09-18T10:25:14;21.30;99.90
21487;DHT22;10905;50.822;4.336;2023-09-18T10:27:46;21.30;99.90
21487;DHT22;10905;50.822;4.336;2023-09-18T10:30:15;21.40;99.90
21487;DHT22;10905;50.822;4.336;2023-09-18T10:32:44;21.40;99.90
21487;DHT22;10905;50.822;4.336;2023-09-18T10:35:13;21.30;99.90
21487;DHT22;10905;50.822;4.336;2023-09-18T10:37:41;21.20;99.90
21487;DHT22;10905;50.822;4.336;2023-09-18T10:40:09;21.20;99.90
21487;DHT22;10905;50.822;4.336;2023-09-18T10:42:38;21.20;99.90
21487;DHT22;10905;50.822;4.336;2023-09-18T10:45:04;21.10;99.90
21487;DHT22;10905;50.822;4.336;2023-09-18T10:47:31;21.20;99.90
21487;DHT22;10905;50.822;4.336;2023-09-18T10:49:57;21.30;99.90
21487;DHT22;10905;50.822;4.336;2023-09-18T10:52:22;21.50;99.90
21487;DHT22;10905;50.822;4.336;2023-09-18T10:54:48;21.50;99.90
21487;DHT22;10905;50.822;4.336;2023-09-18T10:57:14;21.60;99.90
21487;DHT22;10905;50.822;4.336;2023-09-18T10:59:44;21.70;99.90
21487;DHT22;10905;50.822;4.336;2023-09-18T11:02:14;21.80;99.90
21487;DHT22;10905;50.822;4.336;2023-09-18T11:04:42;21.80;99.90
21487;DHT22;10905;50.822;4.336;2023-09-18T11:07:08;21.80;99.90
21487;DHT22;10905;50.822;4.336;2023-09-18T11:09:43;21.80;99.90
21487;DHT22;10905;50.822;4.336;2023-09-18T11:12:10;21.90;99.90
21487;DHT22;10905;50.822;4.336;2023-09-18T11:14:56;21.90;99.90
21487;DHT22;10905;50.822;4.336;2023-09-18T11:22:56;22.30;99.90
21487;DHT22;10905;50.822;4.336;2023-09-18T11:28:02;22.40;99.90
21487;DHT22;10905;50.822;4.336;2023-09-18T11:30:29;22.40;99.90
21487;DHT22;10905;50.822;4.336;2023-09-18T11:32:55;22.30;99.90
21487;DHT22;10905;50.822;4.336;2023-09-18T11:35:21;22.20;99.90
21487;DHT22;10905;50.822;4.336;2023-09-18T11:38:06;22.20;99.90
21487;DHT22;10905;50.822;4.336;2023-09-18T11:40:37;22.40;99.90
21487;DHT22;10905;50.822;4.336;2023-09-18T11:43:25;22.60;99.90
21487;DHT22;10905;50.822;4.336;2023-09-18T11:45:55;22.60;99.90
21487;DHT22;10905;50.822;4.336;2023-09-18T11:48:25;22.90;99.90
21487;DHT22;10905;50.822;4.336;2023-09-18T11:50:53;23.10;99.90
21487;DHT22;10905;50.822;4.336;2023-09-18T11:53:20;23.20;99.90
21487;DHT22;10905;50.822;4.336;2023-09-18T11:55:46;23.30;99.90
21487;DHT22;10905;50.822;4.336;2023-09-18T11:58:13;23.30;99.90
21487;DHT22;10905;50.822;4.336;2023-09-18T12:00:39;23.20;99.90
21487;DHT22;10905;50.822;4.336;2023-09-18T12:05:59;23.20;99.90
21487;DHT22;10905;50.822;4.336;2023-09-18T12:08:26;23.20;99.90
21487;DHT22;10905;50.822;4.336;2023-09-18T12:10:55;23.30;99.90
21487;DHT22;10905;50.822;4.336;2023-09-18T12:13:21;23.40;99.90
21487;DHT22;10905;50.822;4.336;2023-09-18T12:15:47;23.50;99.90
21487;DHT22;10905;50.822;4.336;2023-09-18T12:18:14;23.60;99.90
21487;DHT22;10905;50.822;4.336;2023-09-18T12:20:49;23.50;99.90
21487;DHT22;10905;50.822;4.336;2023-09-18T12:23:18;23.30;99.90
21487;DHT22;10905;50.822;4.336;2023-09-18T12:25:48;23.40;99.90
21487;DHT22;10905;50.822;4.336;2023-09-18T12:28:15;23.50;99.90
21487;DHT22;10905;50.822;4.336;2023-09-18T12:30:42;23.60;99.90
21487;DHT22;10905;50.822;4.336;2023-09-18T12:33:08;23.80;99.90
21487;DHT22;10905;50.822;4.336;2023-09-18T12:35:34;23.80;99.90
21487;DHT22;10905;50.822;4.336;2023-09-18T12:38:00;23.90;99.90
21487;DHT22;10905;50.822;4.336;2023-09-18T12:40:28;23.90;99.90
21487;DHT22;10905;50.822;4.336;2023-09-18T12:42:56;23.90;99.90
21487;DHT22;10905;50.822;4.336;2023-09-18T12:45:22;24.00;99.90
21487;DHT22;10905;50.822;4.336;2023-09-18T12:47:50;24.10;99.90
21487;DHT22;10905;50.822;4.336;2023-09-18T12:50:16;24.00;99.90
21487;DHT22;10905;50.822;4.336;2023-09-18T12:52:42;23.90;99.90
21487;DHT22;10905;50.822;4.336;2023-09-18T12:55:08;23.90;99.90
21487;DHT22;10905;50.822;4.336;2023-09-18T12:57:34;23.90;99.90
21487;DHT22;10905;50.822;4.336;2023-09-18T13:00:08;24.00;99.90
21487;DHT22;10905;50.822;4.336;2023-09-18T13:02:37;24.10;99.90
21487;DHT22;10905;50.822;4.336;2023-09-18T13:05:03;24.20;99.90
21487;DHT22;10905;50.822;4.336;2023-09-18T13:07:29;24.30;99.90
21487;DHT22;10905;50.822;4.336;2023-09-18T13:10:03;24.40;99.90
21487;DHT22;10905;50.822;4.336;2023-09-18T13:12:48;24.50;99.90
21487;DHT22;10905;50.822;4.336;2023-09-18T13:17:52;24.50;99.90
21487;DHT22;10905;50.822;4.336;2023-09-18T13:20:21;24.50;99.90
21487;DHT22;10905;50.822;4.336;2023-09-18T13:22:51;24.50;99.90
21487;DHT22;10905;50.822;4.336;2023-09-18T13:25:22;24.30;99.90
21487;DHT22;10905;50.822;4.336;2023-09-18T13:27:48;24.30;99.90
21487;DHT22;10905;50.822;4.336;2023-09-18T13:30:14;24.40;99.90
21487;DHT22;10905;50.822;4.336;2023-09-18T13:32:42;24.40;99.90
21487;DHT22;10905;50.822;4.336;2023-09-18T13:35:09;24.40;99.90
21487;DHT22;10905;50.822;4.336;2023-09-18T13:37:37;24.30;99.90
21487;DHT22;10905;50.822;4.336;2023-09-18T13:40:04;24.30;99.90
21487;DHT22;10905;50.822;4.336;2023-09-18T13:42:35;24.30;99.90
21487;DHT22;10905;50.822;4.336;2023-09-18T13:45:01;24.40;99.90
21487;DHT22;10905;50.822;4.336;2023-09-18T13:47:29;24.50;99.90
21487;DHT22;10905;50.822;4.336;2023-09-18T13:49:55;24.50;99.90
21487;DHT22;10905;50.822;4.336;2023-09-18T13:52:29;24.50;99.90
21487;DHT22;10905;50.822;4.336;2023-09-18T13:54:55;24.40;99.90
21487;DHT22;10905;50.822;4.336;2023-09-18T13:57:21;24.40;99.90
21487;DHT22;10905;50.822;4.336;2023-09-18T13:59:48;24.50;99.90
21487;DHT22;10905;50.822;4.336;2023-09-18T14:02:15;24.30;99.90
21487;DHT22;10905;50.822;4.336;2023-09-18T14:04:42;24.40;99.90
21487;DHT22;10905;50.822;4.336;2023-09-18T14:07:09;24.40;99.90
21487;DHT22;10905;50.822;4.336;2023-09-18T14:09:35;24.40;99.90
21487;DHT22;10905;50.822;4.336;2023-09-18T14:12:04;24.20;99.90
21487;DHT22;10905;50.822;4.336;2023-09-18T14:14:34;24.20;99.90
21487;DHT22;10905;50.822;4.336;2023-09-18T14:17:01;24.20;99.90
21487;DHT22;10905;50.822;4.336;2023-09-18T14:19:26;24.10;99.90
21487;DHT22;10905;50.822;4.336;2023-09-18T14:21:52;24.00;99.90
21487;DHT22;10905;50.822;4.336;2023-09-18T14:24:18;24.00;99.90
21487;DHT22;10905;50.822;4.336;2023-09-18T14:26:48;23.80;99.90
21487;DHT22;10905;50.822;4.336;2023-09-18T14:29:14;23.70;99.90
21487;DHT22;10905;50.822;4.336;2023-09-18T14:31:40;23.60;99.90
21487;DHT22;10905;50.822;4.336;2023-09-18T14:34:06;23.60;99.90
21487;DHT22;10905;50.822;4.336;2023-09-18T14:36:35;23.50;99.90
21487;DHT22;10905;50.822;4.336;2023-09-18T14:39:05;23.30;99.90
21487;DHT22;10905;50.822;4.336;2023-09-18T14:41:34;22.40;99.90
21487;DHT22;10905;50.822;4.336;2023-09-18T14:44:00;21.60;99.90
21487;DHT22;10905;50.822;4.336;2023-09-18T14:46:26;21.00;99.90
21487;DHT22;10905;50.822;4.336;2023-09-18T14:48:52;20.30;99.90
21487;DHT22;10905;50.822;4.336;2023-09-18T14:51:17;19.90;99.90
21487;DHT22;10905;50.822;4.336;2023-09-18T14:53:43;19.70;99.90
21487;DHT22;10905;50.822;4.336;2023-09-18T14:56:09;19.40;99.90
21487;DHT22;10905;50.822;4.336;2023-09-18T14:58:34;19.20;99.90
21487;DHT22;10905;50.822;4.336;2023-09-18T15:01:00;19.20;99.90
21487;DHT22;10905;50.822;4.336;2023-09-18T15:03:26;19.10;99.90
21487;DHT22;10905;50.822;4.336;2023-09-18T15:05:52;19.10;99.90
21487;DHT22;10905;50.822;4.336;2023-09-18T15:08:19;19.10;99.90
21487;DHT22;10905;50.822;4.336;2023-09-18T15:10:47;19.30;99.90
21487;DHT22;10905;50.822;4.336;2023-09-18T15:13:13;19.30;99.90
21487;DHT22;10905;50.822;4.336;2023-09-18T15:15:40;19.50;99.90
21487;DHT22;10905;50.822;4.336;2023-09-18T15:18:06;19.60;99.90
21487;DHT22;10905;50.822;4.336;2023-09-18T15:20:31;19.80;99.90
21487;DHT22;10905;50.822;4.336;2023-09-18T15:22:57;20.10;99.90
21487;DHT22;10905;50.822;4.336;2023-09-18T15:25:23;20.30;99.90
21487;DHT22;10905;50.822;4.336;2023-09-18T15:27:49;20.40;99.90
21487;DHT22;10905;50.822;4.336;2023-09-18T15:30:15;20.40;99.90
21487;DHT22;10905;50.822;4.336;2023-09-18T15:32:49;20.40;99.90
21487;DHT22;10905;50.822;4.336;2023-09-18T15:35:19;20.30;99.90
21487;DHT22;10905;50.822;4.336;2023-09-18T15:37:45;20.30;99.90
21487;DHT22;10905;50.822;4.336;2023-09-18T15:40:11;20.20;99.90
21487;DHT22;10905;50.822;4.336;2023-09-18T15:42:39;20.30;99.90
21487;DHT22;10905;50.822;4.336;2023-09-18T15:45:09;20.30;99.90
21487;DHT22;10905;50.822;4.336;2023-09-18T15:47:40;20.30;99.90
21487;DHT22;10905;50.822;4.336;2023-09-18T15:50:10;20.50;99.90
21487;DHT22;10905;50.822;4.336;2023-09-18T15:52:36;20.70;99.90
21487;DHT22;10905;50.822;4.336;2023-09-18T15:55:03;21.00;99.90